Time;durP1;ratioP1;P1;durP2;ratioP2;P2;SDS_P1;SDS_P2;PMS_P1;PMS_P2;Temp;Humidity;BMP_temperature;BMP_pressure;BME280_temperature;BME280_humidity;BME280_pressure;Samples;Min_cycle;Max_cycle;Signal;HPM_P1;HPM_P2
2023/10/25 00:01:40;;;;;;;2.97;1.30;;;12.90;99.90;;;12.19;100.00;99135.06;4151250;28;20026;-75
2023/10/25 00:03:41;;;;;;;7.82;1.52;;;12.90;99.90;;;12.20;100.00;99134.06;4152835;28;20052;-75
2023/10/25 00:05:42;;;;;;;1.63;1.17;;;12.90;99.90;;;12.19;100.00;99126.31;4169902;28;20033;-75
2023/10/25 00:07:43;;;;;;;2.65;1.23;;;12.90;99.90;;;12.19;100.00;99121.03;4170037;28;20488;-75
2023/10/25 00:09:44;;;;;;;3.92;1.70;;;12.90;99.90;;;12.16;100.00;99130.19;4152340;28;20069;-75
2023/10/25 00:11:45;;;;;;;2.38;1.27;;;12.90;99.90;;;12.14;100.00;99131.41;4169975;28;20049;-75
2023/10/25 00:13:46;;;;;;;5.88;1.50;;;12.90;99.90;;;12.14;100.00;99142.81;4170240;28;20033;-75
2023/10/25 00:15:47;;;;;;;10.48;2.53;;;12.80;99.90;;;12.15;100.00;99151.56;4152319;28;20018;-75
2023/10/25 00:17:49;;;;;;;3.63;1.38;;;12.80;99.90;;;12.14;100.00;99157.84;4169917;28;20048;-75
2023/10/25 00:19:51;;;;;;;2.72;1.35;;;12.80;99.90;;;12.15;100.00;99155.03;4152308;28;20040;-75
2023/10/25 00:21:51;;;;;;;3.22;2.47;;;12.90;99.90;;;12.14;100.00;99158.66;4162627;28;20044;-75
2023/10/25 00:23:52;;;;;;;4.97;1.50;;;12.90;99.90;;;12.16;100.00;99153.97;4136111;28;20023;-75
2023/10/25 00:25:53;;;;;;;3.55;1.88;;;12.90;99.90;;;12.16;100.00;99172.50;4153369;28;20406;-75
2023/10/25 00:27:54;;;;;;;7.13;2.22;;;12.90;99.90;;;12.17;100.00;99183.88;4152243;28;20519;-75
2023/10/25 00:29:55;;;;;;;5.38;1.70;;;12.90;99.90;;;12.17;100.00;99181.22;4153420;28;20421;-75
2023/10/25 00:31:56;;;;;;;3.72;1.70;;;12.90;99.90;;;12.19;100.00;99182.66;4153394;28;20022;-75
2023/10/25 00:33:57;;;;;;;5.82;2.30;;;12.90;99.90;;;12.18;100.00;99175.72;4153261;28;20022;-75
2023/10/25 00:35:58;;;;;;;4.68;1.85;;;12.90;99.90;;;12.20;100.00;99178.19;4153366;28;20491;-75
2023/10/25 00:37:58;;;;;;;4.07;1.70;;;12.90;99.90;;;12.19;100.00;99171.25;4153078;28;20028;-75
2023/10/25 00:39:59;;;;;;;4.65;1.90;;;12.90;99.90;;;12.20;100.00;99172.91;4153241;28;20181;-75
2023/10/25 00:42:00;;;;;;;2.90;1.60;;;12.90;99.90;;;12.21;100.00;99159.47;4153404;28;20029;-75
2023/10/25 00:44:01;;;;;;;2.38;1.63;;;12.90;99.90;;;12.18;100.00;99164.38;4156403;28;20036;-75
2023/10/25 00:46:24;;;;;;;2.33;1.33;;;12.90;99.90;;;12.18;100.00;99159.88;4169565;28;20033;-75
2023/10/25 00:48:25;;;;;;;5.95;1.90;;;12.90;99.90;;;12.16;100.00;99164.56;4169529;28;20378;-75
2023/10/25 00:50:26;;;;;;;4.32;1.90;;;12.90;99.90;;;12.15;100.00;99155.03;4169373;28;20562;-75
2023/10/25 00:52:28;;;;;;;7.18;2.05;;;12.90;99.90;;;12.17;100.00;99165.38;4152022;28;20030;-75
2023/10/25 00:54:29;;;;;;;2.58;1.90;;;12.90;99.90;;;12.16;100.00;99155.81;4151781;28;20025;-75
2023/10/25 00:56:33;;;;;;;7.63;1.85;;;12.90;99.90;;;12.19;100.00;99158.88;4164190;28;20030;-75
2023/10/25 00:58:34;;;;;;;2.58;1.73;;;12.90;99.90;;;12.19;100.00;99155.41;4166441;28;20022;-75
2023/10/25 01:00:35;;;;;;;4.13;1.88;;;12.90;99.90;;;12.17;100.00;99150.34;4135738;28;20030;-75
2023/10/25 01:02:36;;;;;;;4.75;1.90;;;12.90;99.90;;;12.20;100.00;99143.81;4158924;28;20076;-75
2023/10/25 01:04:37;;;;;;;4.43;2.20;;;12.90;99.90;;;12.17;100.00;99144.22;4156448;28;20030;-75
2023/10/25 01:06:38;;;;;;;4.03;2.20;;;12.90;99.90;;;12.19;100.00;99147.47;4135423;28;20042;-75
2023/10/25 01:08:40;;;;;;;3.75;2.38;;;12.90;99.90;;;12.18;100.00;99137.94;4152624;28;20030;-75
2023/10/25 01:10:41;;;;;;;5.38;1.95;;;12.90;99.90;;;12.20;100.00;99142.00;4135420;28;20521;-75
2023/10/25 01:12:42;;;;;;;5.55;1.95;;;12.90;99.90;;;12.19;100.00;99143.00;4159327;28;20052;-75
2023/10/25 01:14:43;;;;;;;5.40;2.08;;;12.90;99.90;;;12.18;100.00;99133.44;4135949;28;20085;-75
2023/10/25 01:16:43;;;;;;;5.00;2.00;;;12.90;99.90;;;12.17;100.00;99131.81;4152650;28;20437;-75
2023/10/25 01:18:44;;;;;;;3.38;1.83;;;12.90;99.90;;;12.16;100.00;99140.75;4155795;28;20017;-75
2023/10/25 01:20:46;;;;;;;4.32;1.88;;;12.90;99.90;;;12.17;100.00;99145.03;4135374;28;20030;-75
2023/10/25 01:22:49;;;;;;;8.32;2.47;;;12.90;99.90;;;12.18;100.00;99140.56;4166760;28;20022;-75
2023/10/25 01:24:50;;;;;;;4.05;1.83;;;12.90;99.90;;;12.17;100.00;99134.47;4152671;28;20029;-75
2023/10/25 01:26:51;;;;;;;5.53;2.22;;;12.90;99.90;;;12.15;100.00;99136.53;4152826;28;20041;-75
2023/10/25 01:28:52;;;;;;;6.72;2.10;;;12.90;99.90;;;12.18;100.00;99136.06;4135146;28;20426;-75
2023/10/25 01:30:53;;;;;;;2.15;1.85;;;12.90;99.90;;;12.17;100.00;99131.81;4152397;28;20034;-75
2023/10/25 01:32:54;;;;;;;5.57;2.17;;;12.90;99.90;;;12.14;100.00;99126.94;4155675;28;20026;-75
2023/10/25 01:34:54;;;;;;;4.05;2.00;;;12.90;99.90;;;12.18;100.00;99132.66;4152560;28;20112;-75
2023/10/25 01:36:55;;;;;;;3.85;2.20;;;12.90;99.90;;;12.17;100.00;99137.13;4152707;28;20030;-75
2023/10/25 01:38:56;;;;;;;3.75;2.10;;;12.90;99.90;;;12.18;100.00;99132.66;4152191;28;20022;-75
2023/10/25 01:40:57;;;;;;;2.60;1.88;;;12.90;99.90;;;12.17;100.00;99126.53;4152600;28;20030;-75
2023/10/25 01:42:58;;;;;;;3.92;2.00;;;12.90;99.90;;;12.15;100.00;99133.06;4153207;28;20068;-75
2023/10/25 01:45:01;;;;;;;5.00;1.98;;;12.90;99.90;;;12.15;100.00;99125.94;4152281;28;20026;-75
2023/10/25 01:47:02;;;;;;;6.55;2.10;;;12.90;99.90;;;12.17;100.00;99131.81;4135035;28;20026;-75
2023/10/25 01:49:03;;;;;;;3.78;1.58;;;12.90;99.90;;;12.16;100.00;99129.38;4152470;28;20057;-75
2023/10/25 01:51:06;;;;;;;3.90;2.28;;;12.90;99.90;;;12.17;100.00;99129.19;4152418;28;20085;-75
2023/10/25 01:53:07;;;;;;;4.30;2.40;;;12.90;99.90;;;12.17;100.00;99126.53;4161749;28;20382;-75
2023/10/25 01:55:08;;;;;;;5.38;2.22;;;12.90;99.90;;;12.16;100.00;99134.66;4167064;28;20053;-75
2023/10/25 01:57:09;;;;;;;5.03;2.55;;;12.90;99.90;;;12.19;100.00;99134.25;4134793;28;20034;-75
2023/10/25 01:59:10;;;;;;;3.40;2.53;;;12.90;99.90;;;12.20;100.00;99131.41;4153025;28;20030;-74
2023/10/25 02:01:10;;;;;;;8.25;2.88;;;12.90;99.90;;;12.21;100.00;99130.38;4152386;28;20096;-75
2023/10/25 02:03:11;;;;;;;7.03;2.90;;;12.90;99.90;;;12.24;100.00;99133.66;4160793;28;20022;-75
2023/10/25 02:05:12;;;;;;;5.25;2.42;;;12.90;99.90;;;12.24;100.00;99131.00;4134854;28;20501;-75
2023/10/25 02:07:13;;;;;;;5.38;2.80;;;13.00;99.90;;;12.24;100.00;99126.53;4151066;28;20481;-75
2023/10/25 02:09:14;;;;;;;5.80;2.25;;;12.90;99.90;;;12.24;100.00;99115.16;4152030;28;20381;-75
2023/10/25 02:11:20;;;;;;;5.03;2.78;;;13.00;99.90;;;12.25;100.00;99101.72;4134511;28;20421;-75
2023/10/25 02:13:21;;;;;;;5.47;2.15;;;13.00;99.90;;;12.21;100.00;99090.72;4163789;28;20036;-75
2023/10/25 02:15:21;;;;;;;5.93;2.80;;;13.00;99.90;;;12.20;100.00;99104.97;4160774;28;20030;-75
2023/10/25 02:17:22;;;;;;;7.22;3.05;;;13.00;99.90;;;12.16;100.00;99114.34;4152053;28;20444;-75
2023/10/25 02:19:23;;;;;;;4.57;2.35;;;12.90;99.90;;;12.14;100.00;99095.22;4160142;28;20022;-75
2023/10/25 02:21:24;;;;;;;8.70;2.85;;;12.90;99.90;;;12.15;100.00;99096.88;4134871;28;20026;-75
2023/10/25 02:23:25;;;;;;;4.90;3.00;;;12.90;99.90;;;12.17;100.00;99094.81;4138463;28;20077;-74
2023/10/25 02:25:26;;;;;;;3.63;2.70;;;12.90;99.90;;;12.13;100.00;99098.88;4152158;28;20033;-75
2023/10/25 02:27:26;;;;;;;7.15;3.42;;;12.90;99.90;;;12.11;100.00;99093.00;4134754;28;20041;-75
2023/10/25 02:29:27;;;;;;;6.50;3.20;;;12.80;99.90;;;12.05;100.00;99093.81;4153207;28;20073;-75
2023/10/25 02:31:28;;;;;;;6.45;3.20;;;12.80;99.90;;;11.96;100.00;99089.75;4155322;28;20026;-75
2023/10/25 02:33:29;;;;;;;4.90;3.35;;;12.70;99.90;;;11.90;100.00;99093.22;4158283;28;20489;-75
2023/10/25 02:35:31;;;;;;;5.60;3.58;;;12.70;99.90;;;11.85;100.00;99106.25;4157812;28;20034;-75
2023/10/25 02:37:32;;;;;;;4.10;3.13;;;12.60;99.90;;;11.81;100.00;99105.00;4137577;28;20035;-75
2023/10/25 02:39:32;;;;;;;7.68;3.38;;;12.60;99.90;;;11.82;100.00;99117.22;4137966;28;20073;-75
2023/10/25 02:41:33;;;;;;;7.80;3.33;;;12.50;99.90;;;11.77;100.00;99117.00;4155283;28;20060;-75
2023/10/25 02:43:35;;;;;;;4.82;2.78;;;12.50;99.90;;;11.78;100.00;99121.28;4167347;28;20029;-75
2023/10/25 02:45:35;;;;;;;5.07;2.78;;;12.50;99.90;;;11.79;100.00;99119.44;4150594;28;20034;-75
2023/10/25 02:47:36;;;;;;;4.63;2.75;;;12.50;99.90;;;11.82;100.00;99119.84;4155093;28;20101;-75
2023/10/25 02:49:37;;;;;;;3.38;2.58;;;12.50;99.90;;;11.85;100.00;99116.81;4137469;28;20045;-75
2023/10/25 02:51:38;;;;;;;7.03;3.20;;;12.60;99.90;;;11.88;100.00;99119.06;4155155;28;20029;-75
2023/10/25 02:53:39;;;;;;;7.75;2.88;;;12.60;99.90;;;11.90;100.00;99111.72;4167416;28;20029;-75
2023/10/25 02:55:40;;;;;;;4.82;3.60;;;12.60;99.90;;;11.90;100.00;99102.97;4165649;28;20030;-75
2023/10/25 02:57:42;;;;;;;9.80;3.70;;;12.60;99.90;;;11.92;100.00;99101.75;4137506;28;20031;-75
2023/10/25 02:59:42;;;;;;;5.05;3.33;;;12.60;99.90;;;11.91;100.00;99105.44;4156030;28;20026;-75
2023/10/25 03:01:43;;;;;;;6.60;3.17;;;12.70;99.90;;;11.89;100.00;99096.88;4153443;28;20030;-75
2023/10/25 03:03:44;;;;;;;6.50;3.42;;;12.60;99.90;;;11.88;100.00;99087.34;4162965;28;20485;-75
2023/10/25 03:05:45;;;;;;;6.07;3.20;;;12.60;99.90;;;11.90;100.00;99085.28;4154837;28;20033;-75
2023/10/25 03:07:46;;;;;;;5.93;3.42;;;12.60;99.90;;;11.88;100.00;99066.22;4154553;28;20034;-75
2023/10/25 03:09:47;;;;;;;5.53;2.70;;;12.70;99.90;;;11.89;100.00;99069.63;4137133;28;20041;-75
2023/10/25 03:11:48;;;;;;;4.32;2.53;;;12.60;99.90;;;11.85;100.00;99057.88;4137182;28;20054;-75
2023/10/25 03:13:49;;;;;;;4.25;2.45;;;12.60;99.90;;;11.78;100.00;99073.72;4143072;28;20030;-75
2023/10/25 03:15:50;;;;;;;3.72;2.20;;;12.60;99.90;;;11.72;100.00;99061.31;4137306;28;20022;-75
2023/10/25 03:17:51;;;;;;;7.80;2.78;;;12.50;99.90;;;11.65;100.00;99050.72;4154505;28;20061;-75
2023/10/25 03:19:53;;;;;;;3.70;2.20;;;12.40;99.90;;;11.65;100.00;99055.19;4150340;28;20097;-75
2023/10/25 03:21:54;;;;;;;4.60;2.08;;;12.40;99.90;;;11.55;100.00;99041.59;4169632;28;20497;-75
2023/10/25 03:23:55;;;;;;;2.85;2.08;;;12.30;99.90;;;11.49;100.00;99047.69;4141768;28;20038;-75
2023/10/25 03:26:06;;;;;;;5.80;2.88;;;12.20;99.90;;;11.41;100.00;99061.91;4154339;28;20057;-75
2023/10/25 03:28:07;;;;;;;5.00;2.92;;;12.20;99.90;;;11.35;100.00;99056.63;4137120;28;20026;-75
2023/10/25 03:30:09;;;;;;;6.20;2.63;;;12.10;99.90;;;11.33;100.00;99048.91;4154382;28;20026;-75
2023/10/25 03:32:09;;;;;;;5.70;2.72;;;12.10;99.90;;;11.32;100.00;99046.47;4154241;28;20383;-75
2023/10/25 03:34:10;;;;;;;8.38;3.70;;;12.10;99.90;;;11.33;100.00;99045.44;4137504;28;20073;-75
2023/10/25 03:36:11;;;;;;;21.13;4.72;;;12.00;99.90;;;11.31;100.00;99037.75;4153069;28;20041;-75
2023/10/25 03:38:12;;;;;;;18.88;4.57;;;12.10;99.90;;;11.34;100.00;99031.25;4154139;28;20021;-75
2023/10/25 03:40:14;;;;;;;7.22;3.13;;;12.10;99.90;;;11.38;100.00;99032.47;4137015;28;20086;-75
2023/10/25 03:42:15;;;;;;;21.98;4.43;;;12.10;99.90;;;11.41;100.00;99038.13;4153809;28;20022;-75
2023/10/25 03:44:16;;;;;;;51.30;7.07;;;12.10;99.90;;;11.46;100.00;99037.53;4165091;28;20080;-75
2023/10/25 03:46:17;;;;;;;6.20;3.45;;;12.20;99.90;;;11.52;100.00;99045.47;4154151;28;20050;-75
2023/10/25 03:48:18;;;;;;;54.80;7.05;;;12.20;99.90;;;11.52;100.00;99036.72;4154269;28;20115;-75
2023/10/25 03:50:19;;;;;;;38.08;5.82;;;12.20;99.90;;;11.56;100.00;99046.66;4153933;28;20037;-75
2023/10/25 03:52:21;;;;;;;7.25;3.50;;;12.30;99.90;;;11.59;100.00;99050.72;4154911;28;20077;-75
2023/10/25 03:54:22;;;;;;;5.78;3.25;;;12.30;99.90;;;11.60;100.00;99050.53;4169954;28;20025;-75
2023/10/25 03:56:23;;;;;;;13.32;4.47;;;12.30;99.90;;;11.62;100.00;99052.97;4158715;28;20161;-75
2023/10/25 03:58:24;;;;;;;6.15;3.80;;;12.30;99.90;;;11.60;100.00;99044.44;4139088;28;20026;-75
2023/10/25 04:00:26;;;;;;;8.93;4.63;;;12.30;99.90;;;11.62;100.00;99058.25;4152442;28;20037;-75
2023/10/25 04:02:28;;;;;;;5.85;3.33;;;12.30;99.90;;;11.65;100.00;99063.94;4170162;28;20049;-75
2023/10/25 04:04:29;;;;;;;3.85;3.30;;;12.30;99.90;;;11.65;100.00;99048.09;4164154;28;20088;-75
2023/10/25 04:06:30;;;;;;;10.35;4.80;;;12.40;99.90;;;11.70;100.00;99055.44;4155518;28;20030;-75
2023/10/25 04:08:31;;;;;;;9.23;4.60;;;12.40;99.90;;;11.70;100.00;99055.44;4153619;28;20448;-75
2023/10/25 04:10:32;;;;;;;4.93;3.75;;;12.40;99.90;;;11.70;100.00;99047.53;4136377;28;20038;-75
2023/10/25 04:12:33;;;;;;;11.30;4.43;;;12.40;99.90;;;11.75;100.00;99047.72;4156218;28;20050;-75
2023/10/25 04:14:34;;;;;;;7.32;4.30;;;12.40;99.90;;;11.76;100.00;99049.34;4138203;28;20031;-75
2023/10/25 04:16:35;;;;;;;10.07;4.60;;;12.50;99.90;;;11.76;100.00;99054.63;4153679;28;20405;-75
2023/10/25 04:18:37;;;;;;;5.00;3.67;;;12.50;99.90;;;11.77;100.00;99048.31;4161185;28;20021;-75
2023/10/25 04:20:38;;;;;;;5.88;3.90;;;12.50;99.90;;;11.78;100.00;99047.31;4158217;28;20096;-75
2023/10/25 04:22:38;;;;;;;6.00;4.00;;;12.50;99.90;;;11.77;100.00;99039.59;4140943;28;20022;-75
2023/10/25 04:24:39;;;;;;;8.05;3.65;;;12.50;99.90;;;11.72;100.00;99036.75;4120040;28;20394;-75
2023/10/25 04:26:40;;;;;;;7.80;4.57;;;12.50;99.90;;;11.66;100.00;99035.69;4152364;28;20030;-75
2023/10/25 04:28:43;;;;;;;4.78;3.10;;;12.40;99.90;;;11.60;100.00;99041.78;4136072;28;20037;-75
2023/10/25 04:30:45;;;;;;;5.03;3.40;;;12.30;99.90;;;11.56;100.00;99024.72;4136009;28;20027;-75
2023/10/25 04:32:46;;;;;;;4.63;3.47;;;12.30;99.90;;;11.54;100.00;99030.22;4140179;28;20029;-75
2023/10/25 04:34:47;;;;;;;4.65;2.90;;;12.30;99.90;;;11.55;100.00;99031.84;4169809;28;20025;-75
2023/10/25 04:36:48;;;;;;;7.45;3.70;;;12.30;99.90;;;11.54;100.00;99029.41;4169706;28;20378;-75
2023/10/25 04:38:49;;;;;;;5.20;3.35;;;12.30;99.90;;;11.53;100.00;99033.06;4169519;28;20083;-75
2023/10/25 04:40:53;;;;;;;13.25;4.10;;;12.30;99.90;;;11.51;100.00;99027.19;4168462;28;20025;-75
2023/10/25 04:42:54;;;;;;;5.45;3.30;;;12.20;99.90;;;11.48;100.00;99031.03;4169395;28;20041;-75
2023/10/25 04:44:55;;;;;;;13.20;4.50;;;12.20;99.90;;;11.46;100.00;99024.34;4163093;28;20026;-75
2023/10/25 04:46:56;;;;;;;9.10;4.28;;;12.20;99.90;;;11.41;100.00;99014.38;4155794;28;20037;-75
2023/10/25 04:48:57;;;;;;;5.55;4.25;;;12.20;99.90;;;11.37;100.00;99013.16;4153257;28;20060;-75
2023/10/25 04:50:58;;;;;;;6.38;3.78;;;12.20;99.90;;;11.38;100.00;99020.06;4135674;28;20533;-75
2023/10/25 04:52:59;;;;;;;5.70;3.78;;;12.20;99.90;;;11.43;100.00;99022.94;4135462;28;20038;-75
2023/10/25 04:55:00;;;;;;;8.60;4.13;;;12.20;99.90;;;11.48;100.00;99022.31;4166132;28;20401;-75
2023/10/25 04:57:01;;;;;;;16.00;4.03;;;12.20;99.90;;;11.53;100.00;99025.94;4139884;28;20076;-75
2023/10/25 04:59:02;;;;;;;6.85;4.03;;;12.30;99.90;;;11.57;100.00;99013.16;4136561;28;20442;-75
2023/10/25 05:01:13;;;;;;;8.30;4.63;;;12.30;99.90;;;11.60;100.00;99018.03;4135689;28;20026;-75
2023/10/25 05:03:14;;;;;;;8.95;4.70;;;12.30;99.90;;;11.64;100.00;99008.69;4152831;28;20022;-75
2023/10/25 05:05:15;;;;;;;7.82;4.07;;;12.30;99.90;;;11.66;100.00;99004.00;4144529;28;20022;-75
2023/10/25 05:07:17;;;;;;;3.97;3.05;;;12.40;99.90;;;11.69;100.00;99003.59;4168882;28;20029;-75
2023/10/25 05:09:18;;;;;;;3.58;2.95;;;12.40;99.90;;;11.73;100.00;99007.50;4151724;28;20489;-76
2023/10/25 05:11:25;;;;;;;3.83;3.00;;;12.40;99.90;;;11.75;100.00;98996.72;4168893;28;20081;-76
2023/10/25 05:13:27;;;;;;;4.15;3.05;;;12.40;99.90;;;11.78;100.00;99001.56;4145532;28;20093;-75
2023/10/25 05:15:28;;;;;;;3.60;2.78;;;12.50;99.90;;;11.80;100.00;98995.06;4169293;28;20666;-75
2023/10/25 05:17:29;;;;;;;5.18;3.03;;;12.50;99.90;;;11.80;100.00;98995.06;4144455;28;20093;-75
2023/10/25 05:19:31;;;;;;;3.85;3.15;;;12.50;99.90;;;11.82;100.00;98990.41;4161333;28;20358;-75
2023/10/25 05:21:35;;;;;;;5.45;3.63;;;12.50;99.90;;;11.84;100.00;98996.28;4152772;28;20101;-76
2023/10/25 05:23:37;;;;;;;5.93;3.28;;;12.50;99.90;;;11.90;100.00;98997.28;4135210;28;20019;-75
2023/10/25 05:25:38;;;;;;;6.50;3.22;;;12.60;99.90;;;11.89;100.00;99001.75;4152781;28;20436;-75
2023/10/25 05:27:39;;;;;;;5.90;2.97;;;12.60;99.90;;;11.95;100.00;99008.03;4152710;28;20030;-75
2023/10/25 05:29:40;;;;;;;8.73;2.42;;;12.60;99.90;;;12.07;100.00;99014.31;4152584;28;20038;-75
2023/10/25 05:31:43;;;;;;;7.38;1.90;;;12.70;99.90;;;12.09;100.00;99023.69;4152728;28;20026;-75
2023/10/25 05:33:44;;;;;;;5.65;2.05;;;12.80;99.90;;;12.17;100.00;99025.28;4152606;28;20109;-76
2023/10/25 05:35:45;;;;;;;9.45;2.70;;;12.80;99.90;;;12.18;100.00;99014.47;4135060;28;20080;-75
2023/10/25 05:37:47;;;;;;;11.70;2.83;;;12.90;99.90;;;12.28;100.00;99032.56;4152335;28;20401;-75
2023/10/25 05:39:48;;;;;;;5.85;1.88;;;12.90;99.90;;;12.35;100.00;99030.72;4135146;28;20149;-75
2023/10/25 05:41:51;;;;;;;8.45;1.90;;;13.00;99.90;;;12.32;100.00;99038.25;4152526;28;20584;-75
2023/10/25 05:44:06;;;;;;;7.43;2.50;;;13.00;99.90;;;12.30;100.00;99027.88;4147955;28;20076;-75
2023/10/25 05:46:07;;;;;;;7.57;2.20;;;13.00;99.90;;;12.32;100.00;99028.47;4151997;28;20029;-75
2023/10/25 05:48:11;;;;;;;6.95;2.20;;;13.00;99.90;;;12.36;100.00;99020.94;4168978;28;20358;-75
2023/10/25 05:50:13;;;;;;;;;;;13.10;99.90;;;12.40;100.00;99022.13;4151589;28;20030;-75
2023/10/25 05:52:14;;;;;;;7.95;2.70;;;13.10;99.90;;;12.49;100.00;99024.34;4151222;28;20365;-75
2023/10/25 05:54:16;;;;;;;9.18;2.83;;;13.20;99.90;;;12.56;100.00;99013.75;4168698;28;20057;-75
2023/10/25 05:56:17;;;;;;;6.75;2.13;;;13.20;99.90;;;12.56;100.00;99016.38;4140369;28;20552;-75
2023/10/25 05:58:18;;;;;;;10.10;2.33;;;13.30;99.90;;;12.55;100.00;99005.00;4153332;28;20448;-75
2023/10/25 06:00:20;;;;;;;12.20;2.22;;;13.20;99.90;;;12.51;100.00;99013.56;4134907;28;20108;-76
2023/10/25 06:02:27;;;;;;;11.15;1.73;;;13.20;99.90;;;12.42;100.00;99009.53;4151042;28;20025;-75
2023/10/25 06:04:31;;;;;;;15.38;1.88;;;13.10;99.90;;;12.35;100.00;99000.81;4137530;28;20054;-75
2023/10/25 06:06:35;;;;;;;7.82;2.33;;;13.10;99.90;;;12.38;100.00;99006.50;4140238;28;20030;-75
2023/10/25 06:08:36;;;;;;;11.20;3.28;;;13.10;99.90;;;12.48;100.00;99012.16;4140237;28;20034;-75
2023/10/25 06:10:38;;;;;;;12.85;3.53;;;13.20;99.90;;;12.54;100.00;99010.50;4157838;28;20034;-75
2023/10/25 06:12:43;;;;;;;17.50;2.67;;;13.30;99.90;;;12.71;100.00;99023.03;4140221;28;20054;-76
2023/10/25 06:14:44;;;;;;;15.15;2.95;;;13.30;99.90;;;12.79;100.00;99024.59;4157471;28;20106;-75
2023/10/25 06:16:44;;;;;;;14.18;3.30;;;13.40;99.90;;;12.85;100.00;99013.16;4157566;28;20029;-75
2023/10/25 06:18:45;;;;;;;17.45;2.38;;;13.50;99.90;;;12.94;100.00;99024.31;4144302;28;20052;-75
2023/10/25 06:20:46;;;;;;;17.42;2.80;;;13.60;99.90;;;12.99;100.00;99020.00;4161823;28;20037;-75
2023/10/25 06:22:47;;;;;;;13.63;1.83;;;13.60;99.90;;;12.99;100.00;99022.66;4162673;28;20021;-76
2023/10/25 06:24:48;;;;;;;16.98;2.63;;;13.70;99.90;;;13.02;100.00;99019.56;4157611;28;20041;-75
2023/10/25 06:26:49;;;;;;;17.35;2.95;;;13.70;99.90;;;13.04;100.00;99017.53;4157663;28;20084;-76
2023/10/25 06:28:51;;;;;;;20.38;4.03;;;13.70;99.90;;;13.12;100.00;99027.91;4140150;28;20023;-75
2023/10/25 06:30:51;;;;;;;14.27;2.65;;;13.80;99.90;;;13.13;100.00;99024.25;4157539;28;20113;-75
2023/10/25 06:32:53;;;;;;;14.75;2.13;;;13.80;99.90;;;13.14;100.00;99020.53;4140211;28;20033;-75
2023/10/25 06:34:54;;;;;;;7.82;2.13;;;13.80;99.90;;;13.17;100.00;99022.75;4140138;28;20089;-75
2023/10/25 06:36:55;;;;;;;15.05;3.55;;;13.80;99.90;;;13.21;100.00;99031.09;4140310;28;20027;-75
2023/10/25 06:38:56;;;;;;;17.83;2.90;;;13.90;99.90;;;13.16;100.00;99018.50;4159229;28;20030;-75
2023/10/25 06:40:57;;;;;;;9.27;1.70;;;13.90;99.90;;;13.23;100.00;99029.06;4139957;28;20038;-76
2023/10/25 06:42:58;;;;;;;18.02;3.80;;;13.90;99.90;;;13.26;100.00;99024.13;4142037;28;20105;-75
2023/10/25 06:45:00;;;;;;;10.80;2.97;;;13.90;99.90;;;13.24;100.00;99018.25;4139809;28;20037;-75
2023/10/25 06:47:02;;;;;;;14.02;2.35;;;13.90;99.90;;;13.30;100.00;99027.97;4157658;28;20036;-75
2023/10/25 06:49:04;;;;;;;13.80;3.03;;;14.00;99.90;;;13.34;100.00;99032.84;4140151;28;20026;-75
2023/10/25 06:51:06;;;;;;;11.52;2.20;;;14.00;99.90;;;13.35;100.00;99029.19;4157475;28;20133;-75
2023/10/25 06:53:07;;;;;;;10.82;2.53;;;14.00;99.90;;;13.36;100.00;99046.66;4139711;28;20177;-75
2023/10/25 06:55:09;;;;;;;18.85;2.80;;;14.00;99.90;;;13.36;100.00;99044.84;4154180;28;20029;-75
2023/10/25 06:57:11;;;;;;;13.90;2.30;;;14.00;99.90;;;13.35;100.00;99051.16;4156099;28;20030;-75
2023/10/25 06:59:12;;;;;;;12.70;2.03;;;14.00;99.90;;;13.26;100.00;99055.91;4156118;28;20547;-75
2023/10/25 07:01:19;;;;;;;18.08;3.55;;;14.00;99.90;;;13.20;100.00;99069.22;4173609;28;20055;-75
2023/10/25 07:03:23;;;;;;;17.75;2.58;;;13.90;99.90;;;13.16;100.00;99068.81;4173532;28;20032;-75
2023/10/25 07:05:24;;;;;;;14.23;2.40;;;13.90;99.90;;;13.10;100.00;99088.19;4156320;28;20092;-75
2023/10/25 07:07:30;;;;;;;13.43;2.60;;;13.80;99.90;;;13.13;100.00;99084.31;4155743;28;20062;-75
2023/10/25 07:09:31;;;;;;;14.23;2.15;;;13.90;99.90;;;13.24;100.00;99097.69;4139810;28;20093;-75
2023/10/25 07:11:32;;;;;;;15.45;2.17;;;14.00;99.90;;;13.32;100.00;99097.41;4155682;28;20804;-75
2023/10/25 07:13:33;;;;;;;10.20;2.38;;;14.00;99.90;;;13.32;100.00;99108.00;4172457;28;20073;-75
2023/10/25 07:15:35;;;;;;;6.07;1.40;;;14.00;99.90;;;13.35;100.00;99112.06;4171977;28;20088;-75
2023/10/25 07:17:37;;;;;;;9.93;2.40;;;14.10;99.90;;;13.39;100.00;99117.75;4153055;28;20030;-75
2023/10/25 07:19:41;;;;;;;10.25;2.05;;;14.10;99.90;;;13.38;100.00;99129.38;4147170;28;20026;-75
2023/10/25 07:21:42;;;;;;;;;;;14.10;99.90;;;13.35;100.00;99138.56;4143678;28;20014;-75
2023/10/25 07:23:43;;;;;;;6.25;1.55;;;14.10;99.90;;;13.33;100.00;99137.97;4160346;28;19919;-75
2023/10/25 07:25:44;;;;;;;10.70;2.10;;;14.10;99.90;;;13.32;100.00;99142.44;4142228;28;20049;-75
2023/10/25 07:27:45;;;;;;;12.63;2.03;;;14.10;99.90;;;13.30;100.00;99143.69;4166024;28;20440;-75
2023/10/25 07:29:47;;;;;;;8.40;1.73;;;14.10;99.90;;;13.32;100.00;99159.38;4137857;28;20065;-75
2023/10/25 07:31:48;;;;;;;8.88;1.50;;;14.10;99.90;;;13.32;100.00;99160.97;4161094;28;20029;-75
2023/10/25 07:33:49;;;;;;;9.00;1.80;;;14.10;99.90;;;13.45;100.00;99156.63;4154306;28;20474;-75
2023/10/25 07:35:50;;;;;;;12.50;2.15;;;14.20;99.90;;;13.42;100.00;99162.34;4154172;28;20415;-75
2023/10/25 07:37:51;;;;;;;10.77;2.40;;;14.20;99.90;;;13.48;100.00;99162.31;4155793;28;20053;-75
2023/10/25 07:39:51;;;;;;;12.85;2.63;;;14.20;99.90;;;13.50;100.00;99170.06;4154253;28;20026;-75
2023/10/25 07:41:52;;;;;;;12.52;2.15;;;14.20;99.90;;;13.59;100.00;99184.69;4154144;28;20029;-75
2023/10/25 07:43:53;;;;;;;8.50;1.60;;;14.30;99.90;;;13.61;100.00;99185.28;4153956;28;20654;-75
2023/10/25 07:45:54;;;;;;;12.40;2.13;;;14.30;99.90;;;13.69;100.00;99185.84;4154135;28;20080;-75
2023/10/25 07:47:55;;;;;;;8.02;2.47;;;14.40;99.90;;;13.65;100.00;99189.94;4161805;28;20025;-75
2023/10/25 07:49:56;;;;;;;4.90;2.13;;;14.40;99.90;;;13.67;100.00;99187.06;4141591;28;20041;-75
2023/10/25 07:51:56;;;;;;;7.32;1.33;;;14.40;99.90;;;13.74;100.00;99187.81;4154038;28;20076;-75
2023/10/25 07:53:57;;;;;;;4.43;1.10;;;14.40;99.90;;;13.71;100.00;99198.84;4141415;28;20080;-75
2023/10/25 07:56:02;;;;;;;5.82;1.38;;;14.50;99.90;;;13.70;100.00;99202.56;4162367;28;20026;-75
2023/10/25 07:58:03;;;;;;;4.25;1.00;;;14.50;99.90;;;13.68;100.00;99215.19;4162190;28;20075;-75
2023/10/25 08:00:05;;;;;;;4.05;0.90;;;14.50;99.90;;;13.63;100.00;99221.13;4166992;28;20018;-75
2023/10/25 08:02:07;;;;;;;7.20;1.33;;;14.40;99.90;;;13.73;100.00;99236.56;4153929;28;20108;-75
2023/10/25 08:04:08;;;;;;;3.95;1.75;;;14.40;99.90;;;13.70;100.00;99239.66;4136582;28;20026;-75
2023/10/25 08:06:09;;;;;;;6.85;1.10;;;14.40;99.90;;;13.64;100.00;99259.03;4153968;28;20037;-74
2023/10/25 08:08:10;;;;;;;2.83;1.02;;;14.40;99.90;;;13.51;100.00;99259.09;4161179;28;20071;-74
2023/10/25 08:10:11;;;;;;;3.97;1.00;;;14.40;99.90;;;13.50;100.00;99258.28;4136447;28;20030;-76
2023/10/25 08:12:12;;;;;;;4.13;0.80;;;14.30;99.90;;;13.28;100.00;99257.78;4153632;28;20042;-75
2023/10/25 08:14:12;;;;;;;5.88;0.85;;;14.20;99.90;;;13.40;100.00;99276.47;4136323;28;20022;-75
2023/10/25 08:16:13;;;;;;;2.53;0.50;;;14.20;99.90;;;13.44;100.00;99282.16;4136249;28;20022;-75
2023/10/25 08:18:14;;;;;;;2.13;0.90;;;14.20;99.90;;;13.45;100.00;99291.72;4145749;28;20080;-75
2023/10/25 08:20:15;;;;;;;4.30;1.08;;;14.20;99.90;;;13.42;100.00;99284.19;4162597;28;20401;-75
2023/10/25 08:22:16;;;;;;;1.95;0.65;;;14.20;99.90;;;13.44;100.00;99292.75;4136029;28;20036;-75
2023/10/25 08:24:17;;;;;;;2.78;0.52;;;14.20;99.90;;;13.39;100.00;99300.50;4136073;28;20034;-75